Portada
METAR-TAF:

METAR-TAF

Aeroports :

Port Saïd, Egipte

latitud: 31-16N, longitud: 032-18E, altitud: 6 m

Observació

L'informe es va fer fa 20 minuts, a les 07:00 UTC
Vent 8 kt del Oest/Nord-Oest
Temperatura 24°C
Humitat 65%
Pressió 1020 hPa
Visibilitat 10 km o més
Núvols disperses a una alçada de 2000 ft

METAR: HEPS 200700Z 30008KT 9999 SCT020 24/17 Q1020 NOSIG

Hora: 09:20 (07:20 UTC)

Pronòstic

L'informe es va fer fa 2 hores i 20 minuts, a les 05:00 UTC
Pronòstic vàlid del 20 a les 06 UTC al 21 a les 12 UTC
Vent 8 kt del Nord/Nord-Oest
Visibilitat 10 km o més
Núvols disperses a una alçada de 2500 ft

TAF: HEPS 200500Z 2006/2112 34008KT 9999 SCT025

Observacions i pronòstics meteorològics de més de 4000 aeroports (METAR i TAF).

Les estacions disponibles són els punts grocs i vermells al mapa.

Posi el ratolí al punt desitjat per veure el nom de l'estació.

Feu clic per veure les observacions i els pronòstics meteorològics.

Per canviar el mapa: feu clic els botons verds amb una creu de color negre per apropar; al botó verd amb un guió per allunyar la imatge; o en les fletxes verdes per a mapes adjacents.


METAR-TAF: